METAR stanice u blizini

 

LYBE - Beograd / Surčin, Srbija
Ažurirano: 06/07/2020 09:30
Vedro
Vedro
 Pravac vetra varies
Vetar: varies 4 km/h
Temperatura: 26°C
Tačka rose: 17°C
Vlažnost: 58%
Pritisak: 1012 hPa
Pregled: Vedro
Vidljivost: greater than 10 km
2020/07/06 07:30 LYBE 060730Z VRB02KT CAVOK 26/17 Q1012 NOSIG
LYBT - Beograd / Batajnica, Srbija
Ažurirano: 06/07/2020 09:30
Vedro
Vedro
 Pravac vetra varies
Vetar: varies 2 km/h
Temperatura: 25°C
Tačka rose: 15°C
Vlažnost: 54%
Pritisak: 1011 hPa
Pregled: Vedro
Vidljivost: greater than 10 km
2020/07/06 07:30 LYBT 060730Z VRB01KT CAVOK 25/15 Q1011 NOSIG
LYVR - Vršac, Srbija
Ažurirano: 06/07/2020 09:30
Vedro
Vedro
 Pravac vetra varies
Vetar: varies 2 km/h
Temperatura: 26°C
Tačka rose: 18°C
Vlažnost: 61%
Pritisak: 1011 hPa
Pregled: Vedro
Vidljivost: greater than 10 km
2020/07/06 07:30 LYVR 060730Z VRB01KT CAVOK 26/18 Q1011
 
LYKV - Lađevci, Srbija
Ažurirano: 06/07/2020 09:30
Mostly Cloudy
Mostly Cloudy
 Pravac vetra varies
Vetar: varies 4 km/h
Temperatura: 22°C
Tačka rose: 18°C
Vlažnost: 78%
Pritisak: 1012 hPa
Oblaci: Mostly Cloudy
Vidljivost: 10 km
Cloud details: Mostly Cloudy 1829 m
2020/07/06 07:30 LYKV 060730Z VRB02KT 9999 BKN060 22/18 Q1012 NOSIG
LYNI - Niš, Srbija
Ažurirano: 06/07/2020 09:30
Vedro
Vedro
 Pravac vetra SSZ
Vetar: SSZ 19 km/h
Temperatura: 24°C
Tačka rose: 17°C
Vlažnost: 65%
Pritisak: 1011 hPa
Pregled: Vedro
Vidljivost: greater than 10 km
2020/07/06 07:30 LYNI 060730Z 34010KT 210V020 CAVOK 24/17 Q1011 NOSIG
BKPR - Priština, Srbija
Ažurirano: 06/07/2020 09:30
Partly Cloudy
Partly Cloudy
 Pravac vetra S
Vetar: S 17 km/h
Temperatura: 23°C
Tačka rose: 13°C
Vlažnost: 53%
Pritisak: 1012 hPa
Oblaci: Partly Cloudy
Vidljivost: 10 km
Cloud details: Few Clouds 1219 m
Partly Cloudy 2438 m
2020/07/06 07:30 BKPR 060730Z 01009KT 9999 FEW040 SCT080 23/13 Q1012 NOSIG
 
LHPP - Pecs / Pogany, Hungary
Ažurirano: 06/07/2020 09:15
Vedro
Vedro
 Pravac vetra S
Vetar: S 7 km/h
Temperatura: 28°C
Heat Index: 28°C
Tačka rose: 15°C
Vlažnost: 45%
Pritisak: 1012 hPa
Pregled: Vedro
Vidljivost: greater than 10 km
2020/07/06 07:15 LHPP 060715Z 35004KT CAVOK 28/15 Q1012
LHUD - Szeged, Hungary
Ažurirano: 04/07/2019 01:45
NOT Current
Vedro
Vedro
 Pravac vetra S
Vetar: S 7 km/h
Temperatura: 18°C
Tačka rose: 13°C
Vlažnost: 73%
Pritisak: 1019 hPa
Pregled: Vedro
Vidljivost: greater than 10 km
2019/07/03 23:45 LHUD 032345Z 35004KT CAVOK 18/13 Q1019
LRTR - Timisoara, Romania
Ažurirano: 06/07/2020 09:30
Vedro
Vedro
 Pravac vetra varies
Vetar: varies 6 km/h
Temperatura: 27°C
Heat Index: 28°C
Tačka rose: 18°C
Vlažnost: 58%
Pritisak: 1011 hPa
Pregled: Vedro
Vidljivost: greater than 10 km
2020/07/06 07:30 LRTR 060730Z VRB03KT CAVOK 27/18 Q1011
 
LRCV - Craiova, Romania
Ažurirano: 06/07/2020 09:30
Vedro
Vedro
 Pravac vetra IJI
Vetar: IJI 9 km/h
Temperatura: 27°C
Heat Index: 28°C
Tačka rose: 17°C
Vlažnost: 54%
Pritisak: 1011 hPa
Pregled: Vedro
Vidljivost: greater than 10 km
2020/07/06 07:30 LRCV 060730Z 12005KT 070V150 CAVOK 27/17 Q1011
LBSF - Sofia, Bulgaria
Ažurirano: 06/07/2020 09:30
Vedro
Vedro
 Pravac vetra varies
Vetar: varies 9 km/h
Temperatura: 25°C
Tačka rose: 17°C
Vlažnost: 61%
Pritisak: 1011 hPa
Pregled: Vedro
Vidljivost: greater than 10 km
2020/07/06 07:30 LBSF 060730Z VRB05KT CAVOK 25/17 Q1011 NOSIG
LWSK - Skoplje, Makedonija
Ažurirano: 06/07/2020 09:30
Few Clouds
Few Clouds
 Pravac vetra ZSZ
Vetar: ZSZ 9 km/h
Temperatura: 27°C
Heat Index: 28°C
Tačka rose: 16°C
Vlažnost: 51%
Pritisak: 1009 hPa
Oblaci: Few Clouds
Vidljivost: 10 km
Cloud details: Few Clouds 2743 m
2020/07/06 07:30 LWSK 060730Z 29005KT 250V340 9999 FEW090 27/16 Q1009 NOSIG
 
LYPG - Podgorica, Crna Gora
Ažurirano: 06/07/2020 09:30
Partly Cloudy
Partly Cloudy
 Pravac vetra SSI
Vetar: SSI 19 km/h
Temperatura: 29°C
Tačka rose: 13°C
Vlažnost: 37%
Pritisak: 1008 hPa
Oblaci: Partly Cloudy
Vidljivost: 10 km
Cloud details: Partly Cloudy 3048 m
2020/07/06 07:30 LYPG 060730Z 02010KT 350V050 9999 SCT100 29/13 Q1008 NOSIG
LQSA - Sarajevo, Bosna i Hercegovina
Ažurirano: 06/07/2020 09:30
Few Clouds
Few Clouds
 Pravac vetra varies
Vetar: varies 4 km/h
Temperatura: 20°C
Tačka rose: 15°C
Vlažnost: 73%
Pritisak: 1014 hPa
Oblaci: Few Clouds
Vidljivost: 10 km
Cloud details: Few Clouds 1524 m
2020/07/06 07:30 LQSA 060730Z VRB02KT 9999 FEW050 20/15 Q1014
LDOS - Osijek, Hrvatksa
Ažurirano: 06/07/2020 09:30
Vedro
Vedro
 Pravac vetra calm
Vetar: Tišina
Temperatura: 25°C
Tačka rose: 17°C
Vlažnost: 61%
Pritisak: 1011 hPa
Pregled: Vedro
Vidljivost: greater than 10 km
2020/07/06 07:30 LDOS 060730Z 00000KT CAVOK 25/17 Q1011